createdAt,value
2018-09-26T00:00:50.680Z,1.70
2018-09-26T00:03:27.347Z,1.70
2018-09-26T00:05:55.426Z,1.60
2018-09-26T00:08:23.496Z,1.50
2018-09-26T00:10:51.541Z,1.40
2018-09-26T00:13:19.616Z,1.30
2018-09-26T00:15:47.776Z,1.30
2018-09-26T00:18:15.845Z,1.30
2018-09-26T00:20:43.913Z,1.30
2018-09-26T00:23:11.992Z,1.30
2018-09-26T00:25:40.037Z,1.30
2018-09-26T00:28:08.164Z,1.10
2018-09-26T00:30:36.199Z,1.10
2018-09-26T00:33:04.274Z,1.20
2018-09-26T00:35:32.335Z,1.20
2018-09-26T00:38:00.401Z,1.20
2018-09-26T00:40:28.482Z,1.30
2018-09-26T00:42:56.577Z,1.40
2018-09-26T00:45:24.666Z,1.40
2018-09-26T00:47:52.746Z,1.40
2018-09-26T00:50:20.813Z,1.50
2018-09-26T00:52:48.862Z,1.60
2018-09-26T00:55:16.960Z,1.80
2018-09-26T00:57:45.021Z,1.70
2018-09-26T01:00:13.102Z,1.70
2018-09-26T01:02:41.157Z,1.70
2018-09-26T01:05:09.246Z,1.80
2018-09-26T01:07:37.360Z,1.90
2018-09-26T01:10:05.441Z,2.00
2018-09-26T01:12:33.505Z,2.10
2018-09-26T01:15:01.586Z,2.30
2018-09-26T01:17:29.708Z,2.30
2018-09-26T01:19:57.761Z,2.40
2018-09-26T01:22:25.818Z,2.70
2018-09-26T01:24:53.902Z,2.80
2018-09-26T01:27:21.969Z,2.80
2018-09-26T01:29:50.023Z,3.00
2018-09-26T01:32:18.087Z,3.30
2018-09-26T01:34:46.168Z,3.40
2018-09-26T01:37:14.219Z,3.30
2018-09-26T01:39:42.282Z,3.20
2018-09-26T01:42:10.350Z,3.20
2018-09-26T01:44:38.416Z,3.00
2018-09-26T01:47:06.442Z,3.00
2018-09-26T01:49:34.487Z,2.90
2018-09-26T01:52:02.547Z,3.10
2018-09-26T01:54:30.586Z,3.10
2018-09-26T01:56:58.646Z,2.90
2018-09-26T01:59:26.710Z,2.70
2018-09-26T02:01:54.769Z,2.50
2018-09-26T02:04:22.817Z,2.30
2018-09-26T02:06:50.891Z,2.20
2018-09-26T02:09:18.937Z,2.10
2018-09-26T02:11:47.018Z,2.10
2018-09-26T02:14:15.110Z,2.10
2018-09-26T02:16:43.167Z,2.00
2018-09-26T02:19:11.207Z,2.10
2018-09-26T02:21:39.280Z,2.20
2018-09-26T02:24:07.338Z,2.10
2018-09-26T02:26:35.410Z,2.00
2018-09-26T02:29:03.478Z,2.00
2018-09-26T02:31:31.558Z,2.00
2018-09-26T02:33:59.643Z,2.10
2018-09-26T02:36:27.697Z,2.10
2018-09-26T02:38:55.775Z,2.10
2018-09-26T02:41:23.867Z,2.00
2018-09-26T02:43:51.946Z,2.00
2018-09-26T02:46:20.023Z,2.00
2018-09-26T02:48:53.662Z,2.10
2018-09-26T02:51:21.708Z,2.10
2018-09-26T02:53:49.769Z,2.10
2018-09-26T02:56:17.866Z,2.20
2018-09-26T02:58:45.962Z,2.30
2018-09-26T03:01:14.030Z,2.30
2018-09-26T03:03:42.099Z,2.40
2018-09-26T03:06:10.211Z,2.50
2018-09-26T03:08:38.257Z,2.60
2018-09-26T03:11:06.322Z,2.70
2018-09-26T03:13:34.390Z,2.80
2018-09-26T03:16:02.498Z,2.90
2018-09-26T03:18:30.562Z,3.00
2018-09-26T03:20:58.610Z,3.20
2018-09-26T03:23:26.758Z,3.30
2018-09-26T03:25:54.809Z,3.50
2018-09-26T03:28:22.874Z,3.60
2018-09-26T03:30:51.152Z,3.60
2018-09-26T03:33:19.200Z,3.70
2018-09-26T03:35:47.248Z,3.60
2018-09-26T03:38:15.298Z,3.50
2018-09-26T03:40:43.342Z,3.40
2018-09-26T03:43:11.402Z,3.40
2018-09-26T03:45:39.451Z,3.60
2018-09-26T03:48:07.527Z,3.70
2018-09-26T03:50:35.580Z,3.60
2018-09-26T03:53:03.859Z,3.60
2018-09-26T03:55:31.925Z,3.60
2018-09-26T03:57:59.986Z,3.70
2018-09-26T04:00:28.047Z,3.80
2018-09-26T04:02:56.178Z,3.80
2018-09-26T04:05:24.242Z,3.60
2018-09-26T04:07:52.328Z,3.50
2018-09-26T04:10:20.382Z,3.30
2018-09-26T04:12:48.512Z,3.30
2018-09-26T04:15:16.489Z,3.30
2018-09-26T04:17:44.602Z,3.30
2018-09-26T04:20:12.658Z,3.30
2018-09-26T04:22:40.705Z,3.30
2018-09-26T04:25:08.749Z,3.30
2018-09-26T04:27:36.893Z,3.40
2018-09-26T04:30:05.250Z,3.40
2018-09-26T04:32:33.455Z,3.40
2018-09-26T04:35:01.451Z,3.50
2018-09-26T04:37:29.510Z,3.60
2018-09-26T04:39:57.601Z,3.60
2018-09-26T04:42:25.667Z,3.70
2018-09-26T04:44:53.718Z,3.80
2018-09-26T04:47:21.778Z,3.70
2018-09-26T04:49:49.818Z,3.70
2018-09-26T04:52:17.870Z,3.70
2018-09-26T04:54:45.984Z,3.80
2018-09-26T04:57:14.031Z,3.90
2018-09-26T04:59:42.085Z,4.00
2018-09-26T05:02:10.189Z,4.10
2018-09-26T05:04:38.245Z,4.20
2018-09-26T05:07:06.311Z,4.20
2018-09-26T05:09:34.346Z,4.30
2018-09-26T05:12:02.401Z,4.40
2018-09-26T05:14:30.455Z,4.60
2018-09-26T05:16:58.513Z,4.70
2018-09-26T05:19:26.552Z,4.80
2018-09-26T05:21:54.625Z,5.00
2018-09-26T05:24:22.685Z,5.10
2018-09-26T05:26:50.774Z,5.20
2018-09-26T05:29:18.871Z,5.20
2018-09-26T05:31:46.957Z,5.30
2018-09-26T05:34:15.053Z,5.40
2018-09-26T05:36:43.147Z,5.50
2018-09-26T05:39:12.198Z,5.60
2018-09-26T05:41:40.373Z,5.70
2018-09-26T05:44:08.730Z,5.80
2018-09-26T05:46:37.248Z,5.90
2018-09-26T05:49:05.352Z,6.10
2018-09-26T05:51:33.452Z,6.40
2018-09-26T05:54:01.597Z,6.80
2018-09-26T05:56:29.681Z,7.30
2018-09-26T05:58:57.754Z,7.70
2018-09-26T06:01:25.823Z,8.10
2018-09-26T06:03:53.912Z,8.30
2018-09-26T06:06:22.022Z,8.30
2018-09-26T06:08:50.111Z,8.30
2018-09-26T06:11:18.227Z,8.30
2018-09-26T06:13:46.400Z,8.50
2018-09-26T06:16:14.506Z,8.50
2018-09-26T06:18:42.663Z,8.50
2018-09-26T06:21:10.786Z,8.60
2018-09-26T06:23:38.929Z,8.60
2018-09-26T06:26:07.000Z,8.60
2018-09-26T06:28:35.140Z,8.60
2018-09-26T06:31:03.253Z,8.60
2018-09-26T06:33:31.341Z,8.60
2018-09-26T06:35:59.410Z,8.70
2018-09-26T06:38:27.505Z,8.90
2018-09-26T06:40:55.613Z,9.10
2018-09-26T06:43:23.719Z,9.20
2018-09-26T06:45:51.843Z,9.30
2018-09-26T06:48:19.980Z,9.40
2018-09-26T06:50:48.075Z,9.60
2018-09-26T06:53:16.224Z,9.90
2018-09-26T06:55:44.315Z,10.30
2018-09-26T06:58:12.410Z,10.50
2018-09-26T07:00:40.545Z,10.80
2018-09-26T07:03:08.615Z,11.10
2018-09-26T07:05:36.749Z,11.10
2018-09-26T07:08:05.118Z,10.90
2018-09-26T07:10:33.219Z,11.00
2018-09-26T07:13:01.329Z,11.30
2018-09-26T07:15:29.442Z,11.60
2018-09-26T07:17:57.597Z,11.90
2018-09-26T07:20:25.698Z,12.30
2018-09-26T07:22:53.773Z,12.60
2018-09-26T07:25:22.076Z,13.00
2018-09-26T07:27:50.246Z,13.30
2018-09-26T07:30:18.329Z,13.00
2018-09-26T07:32:46.406Z,12.50
2018-09-26T07:35:14.558Z,12.20
2018-09-26T07:37:42.648Z,12.30
2018-09-26T07:40:10.722Z,13.00
2018-09-26T07:42:38.787Z,13.70
2018-09-26T07:45:06.966Z,14.40
2018-09-26T07:47:35.150Z,15.00
2018-09-26T07:50:03.239Z,15.40
2018-09-26T07:52:31.329Z,15.40
2018-09-26T07:54:59.405Z,15.60
2018-09-26T07:57:27.493Z,15.60
2018-09-26T07:59:55.576Z,15.90
2018-09-26T08:02:23.730Z,16.10
2018-09-26T08:04:51.800Z,16.60
2018-09-26T08:07:20.023Z,16.50
2018-09-26T08:09:48.104Z,16.10
2018-09-26T08:12:16.267Z,16.60
2018-09-26T08:14:44.347Z,17.40
2018-09-26T08:17:12.422Z,18.10
2018-09-26T08:19:40.494Z,18.70
2018-09-26T08:22:08.629Z,18.10
2018-09-26T08:24:36.720Z,17.60
2018-09-26T08:27:04.818Z,17.00
2018-09-26T08:29:32.883Z,16.00
2018-09-26T08:32:00.960Z,14.90
2018-09-26T08:34:29.096Z,14.50
2018-09-26T08:36:57.207Z,14.40
2018-09-26T08:39:25.366Z,14.50
2018-09-26T08:41:53.444Z,14.70
2018-09-26T08:44:21.529Z,14.90
2018-09-26T08:46:49.597Z,15.20
2018-09-26T08:49:17.689Z,16.10
2018-09-26T08:51:45.833Z,17.00
2018-09-26T08:54:13.904Z,17.40
2018-09-26T08:56:42.010Z,17.30
2018-09-26T08:59:10.158Z,16.80
2018-09-26T09:01:43.968Z,16.40
2018-09-26T09:04:12.127Z,15.70
2018-09-26T09:06:40.246Z,15.30
2018-09-26T09:09:08.723Z,15.10
2018-09-26T09:11:36.972Z,15.70
2018-09-26T09:14:05.173Z,16.50
2018-09-26T09:16:33.630Z,17.00
2018-09-26T09:19:01.954Z,17.50
2018-09-26T09:21:30.091Z,18.60
2018-09-26T09:23:58.222Z,19.80
2018-09-26T09:26:26.361Z,19.80
2018-09-26T09:28:54.709Z,19.30
2018-09-26T09:31:22.856Z,18.70
2018-09-26T09:33:50.960Z,18.90
2018-09-26T09:36:19.102Z,19.30
2018-09-26T09:38:48.057Z,20.70
2018-09-26T09:41:16.278Z,21.70
2018-09-26T09:43:44.381Z,22.60
2018-09-26T09:46:12.500Z,22.70
2018-09-26T09:48:40.618Z,23.50
2018-09-26T09:51:08.705Z,25.20
2018-09-26T09:53:36.826Z,25.90
2018-09-26T09:56:04.973Z,25.50
2018-09-26T09:58:33.061Z,25.00
2018-09-26T10:01:06.578Z,24.20
2018-09-26T10:03:34.714Z,24.30
2018-09-26T10:06:02.825Z,24.50
2018-09-26T10:08:30.963Z,23.50
2018-09-26T10:10:59.058Z,22.60
2018-09-26T10:13:27.127Z,22.00
2018-09-26T10:15:55.248Z,21.00
2018-09-26T10:18:23.348Z,20.70
2018-09-26T10:20:51.549Z,21.30
2018-09-26T10:23:19.656Z,23.40
2018-09-26T10:25:47.770Z,24.20
2018-09-26T10:28:15.939Z,23.50
2018-09-26T10:30:44.057Z,22.20
2018-09-26T10:33:12.211Z,20.70
2018-09-26T10:35:40.349Z,20.10
2018-09-26T10:38:08.503Z,19.50
2018-09-26T10:40:36.684Z,19.60
2018-09-26T10:43:04.781Z,19.30
2018-09-26T10:45:32.937Z,18.70
2018-09-26T10:48:01.078Z,19.30
2018-09-26T10:50:29.233Z,21.50
2018-09-26T10:52:57.327Z,23.60
2018-09-26T10:55:25.415Z,23.40
2018-09-26T10:57:53.596Z,21.70
2018-09-26T11:00:21.713Z,20.10
2018-09-26T11:02:49.949Z,19.40
2018-09-26T11:05:18.059Z,21.70
2018-09-26T11:07:46.165Z,23.30
2018-09-26T11:10:14.426Z,25.40
2018-09-26T11:12:42.538Z,26.00
2018-09-26T11:15:10.641Z,25.30
2018-09-26T11:17:38.682Z,26.00
2018-09-26T11:20:07.756Z,24.30
2018-09-26T11:22:36.062Z,24.20
2018-09-26T11:25:04.302Z,25.30
2018-09-26T11:27:32.448Z,25.30
2018-09-26T11:30:00.555Z,25.90
2018-09-26T11:32:28.747Z,25.00
2018-09-26T11:34:56.863Z,24.70
2018-09-26T11:37:24.934Z,23.70
2018-09-26T11:39:53.158Z,21.90
2018-09-26T11:42:21.230Z,21.20
2018-09-26T11:44:49.361Z,20.30
2018-09-26T11:47:17.405Z,19.90
2018-09-26T11:49:45.486Z,19.40
2018-09-26T11:52:13.669Z,19.40
2018-09-26T11:54:41.737Z,20.00
2018-09-26T11:57:09.844Z,20.60
2018-09-26T11:59:37.962Z,20.50
2018-09-26T12:02:06.127Z,21.00
2018-09-26T12:04:34.200Z,22.20
2018-09-26T12:07:02.321Z,22.40
2018-09-26T12:09:30.426Z,22.20
2018-09-26T12:11:58.526Z,21.50
2018-09-26T12:14:26.593Z,21.60
2018-09-26T12:16:55.002Z,22.00
2018-09-26T12:19:23.272Z,21.30
2018-09-26T12:21:51.374Z,21.40
2018-09-26T12:24:19.413Z,22.00
2018-09-26T12:26:47.493Z,21.90
2018-09-26T12:29:15.614Z,21.50
2018-09-26T12:31:43.701Z,22.30
2018-09-26T12:34:11.874Z,22.30
2018-09-26T12:36:39.914Z,22.90
2018-09-26T12:39:08.997Z,22.70
2018-09-26T12:41:37.062Z,21.20
2018-09-26T12:44:05.176Z,20.30
2018-09-26T12:46:33.254Z,20.00
2018-09-26T12:49:01.407Z,19.60
2018-09-26T12:51:29.515Z,19.80
2018-09-26T12:53:57.822Z,20.40
2018-09-26T12:56:25.825Z,20.90
2018-09-26T12:58:53.954Z,22.00
2018-09-26T13:01:22.285Z,23.20
2018-09-26T13:03:50.432Z,23.70
2018-09-26T13:06:18.606Z,23.70
2018-09-26T13:08:46.889Z,24.10
2018-09-26T13:11:15.038Z,24.80
2018-09-26T13:13:43.254Z,24.90
2018-09-26T13:16:11.518Z,25.40
2018-09-26T13:18:39.580Z,24.10
2018-09-26T13:21:07.695Z,23.40
2018-09-26T13:23:35.769Z,23.00
2018-09-26T13:26:03.916Z,23.70
2018-09-26T13:28:32.007Z,23.10
2018-09-26T13:31:00.138Z,22.00
2018-09-26T13:33:28.289Z,20.80
2018-09-26T13:35:56.383Z,20.90
2018-09-26T13:38:24.525Z,22.10
2018-09-26T13:40:52.722Z,22.50
2018-09-26T13:43:20.825Z,20.80
2018-09-26T13:45:49.113Z,19.60
2018-09-26T13:48:17.299Z,19.00
2018-09-26T13:50:45.344Z,18.90
2018-09-26T13:53:13.550Z,20.60
2018-09-26T13:55:41.667Z,20.90
2018-09-26T13:58:09.891Z,21.10
2018-09-26T14:00:37.990Z,20.40
2018-09-26T14:03:06.155Z,20.10
2018-09-26T14:05:34.295Z,21.80
2018-09-26T14:08:02.409Z,23.30
2018-09-26T14:10:30.523Z,24.30
2018-09-26T14:12:58.650Z,24.30
2018-09-26T14:15:26.762Z,23.90
2018-09-26T14:17:54.898Z,23.70
2018-09-26T14:20:39.828Z,23.80
2018-09-26T14:23:08.264Z,23.60
2018-09-26T14:25:36.569Z,22.30
2018-09-26T14:28:05.063Z,21.80
2018-09-26T14:30:33.584Z,21.40
2018-09-26T14:33:01.929Z,20.50
2018-09-26T14:35:30.311Z,19.70
2018-09-26T14:37:58.830Z,19.10
2018-09-26T14:40:27.367Z,18.40
2018-09-26T14:42:55.788Z,18.20
2018-09-26T14:45:24.286Z,18.30
2018-09-26T14:47:53.742Z,18.50
2018-09-26T14:50:22.278Z,18.50
2018-09-26T14:52:50.792Z,18.50
2018-09-26T14:55:19.232Z,18.50
2018-09-26T14:57:47.658Z,18.50
2018-09-26T15:00:16.126Z,18.40
2018-09-26T15:02:44.557Z,18.50
2018-09-26T15:05:12.961Z,18.40
2018-09-26T15:07:41.505Z,18.30
2018-09-26T15:10:09.985Z,18.20
2018-09-26T15:12:38.377Z,18.10
2018-09-26T15:15:07.875Z,18.00
2018-09-26T15:17:36.563Z,18.00
2018-09-26T15:20:14.616Z,17.90
2018-09-26T15:22:42.936Z,17.90
2018-09-26T15:25:11.350Z,17.80
2018-09-26T15:27:40.015Z,17.70
2018-09-26T15:30:08.641Z,17.70
2018-09-26T15:32:37.001Z,17.70
2018-09-26T15:35:05.510Z,17.50
2018-09-26T15:37:33.885Z,17.30
2018-09-26T15:40:02.414Z,17.30
2018-09-26T15:42:30.825Z,17.30
2018-09-26T15:45:00.292Z,17.30
2018-09-26T15:47:28.697Z,17.30
2018-09-26T15:49:57.066Z,17.40
2018-09-26T15:52:25.527Z,17.50
2018-09-26T15:54:54.073Z,17.50
2018-09-26T15:57:22.500Z,17.30
2018-09-26T15:59:50.854Z,17.30
2018-09-26T16:02:19.350Z,17.30
2018-09-26T16:07:40.731Z,17.30
2018-09-26T16:10:08.880Z,17.10
2018-09-26T16:12:36.964Z,17.00
2018-09-26T16:15:05.084Z,16.80
2018-09-26T16:17:33.222Z,16.70
2018-09-26T16:20:01.353Z,16.60
2018-09-26T16:22:29.537Z,16.50
2018-09-26T16:24:57.635Z,16.60
2018-09-26T16:27:25.774Z,16.60
2018-09-26T16:29:53.869Z,16.60
2018-09-26T16:32:22.023Z,16.60
2018-09-26T16:34:50.057Z,16.60
2018-09-26T16:37:18.176Z,16.60
2018-09-26T16:39:46.256Z,16.60
2018-09-26T16:42:14.439Z,16.60
2018-09-26T16:44:42.536Z,16.50
2018-09-26T16:47:10.656Z,16.50
2018-09-26T16:49:38.735Z,16.50
2018-09-26T16:52:07.195Z,16.40
2018-09-26T16:54:35.248Z,16.40
2018-09-26T16:59:56.470Z,16.30
2018-09-26T17:02:24.742Z,16.30
2018-09-26T17:04:52.697Z,16.30
2018-09-26T17:07:20.780Z,16.20
2018-09-26T17:09:48.931Z,16.20
2018-09-26T17:12:17.059Z,16.20
2018-09-26T17:14:45.090Z,16.20
2018-09-26T17:17:13.227Z,16.20
2018-09-26T17:19:41.358Z,16.20
2018-09-26T17:22:09.413Z,16.30
2018-09-26T17:24:37.498Z,16.20
2018-09-26T17:27:05.647Z,16.20
2018-09-26T17:29:33.704Z,16.20
2018-09-26T17:32:01.766Z,16.20
2018-09-26T17:34:29.918Z,16.10
2018-09-26T17:36:57.987Z,16.20
2018-09-26T17:39:26.052Z,16.20
2018-09-26T17:41:54.110Z,16.10
2018-09-26T17:44:22.168Z,16.10
2018-09-26T17:46:50.272Z,16.10
2018-09-26T17:49:18.383Z,16.10
2018-09-26T17:51:46.426Z,16.10
2018-09-26T17:54:14.537Z,16.00
2018-09-26T17:56:42.591Z,15.90
2018-09-26T17:59:10.680Z,15.80
2018-09-26T18:01:38.751Z,15.60
2018-09-26T18:04:06.866Z,15.40
2018-09-26T18:06:34.899Z,15.20
2018-09-26T18:09:03.101Z,15.00
2018-09-26T18:11:31.107Z,15.00
2018-09-26T18:13:59.252Z,14.90
2018-09-26T18:16:27.337Z,14.80
2018-09-26T18:18:55.383Z,14.50
2018-09-26T18:21:23.500Z,14.40
2018-09-26T18:23:51.663Z,14.40
2018-09-26T18:26:19.718Z,14.70
2018-09-26T18:28:47.762Z,14.70
2018-09-26T18:31:15.865Z,14.80
2018-09-26T18:33:43.880Z,14.80
2018-09-26T18:36:12.078Z,14.80
2018-09-26T18:38:40.205Z,14.80
2018-09-26T18:41:08.241Z,14.80
2018-09-26T18:43:36.778Z,14.80
2018-09-26T18:46:04.839Z,14.70
2018-09-26T18:48:32.904Z,14.60
2018-09-26T18:51:01.100Z,14.60
2018-09-26T18:53:29.175Z,14.50
2018-09-26T18:55:57.235Z,14.50
2018-09-26T18:58:25.350Z,14.50
2018-09-26T19:00:53.427Z,14.50
2018-09-26T19:03:21.566Z,14.40
2018-09-26T19:05:49.642Z,14.40
2018-09-26T19:11:10.278Z,14.30
2018-09-26T19:13:38.353Z,14.30
2018-09-26T19:16:06.653Z,14.10
2018-09-26T19:18:34.772Z,14.20
2018-09-26T19:21:02.883Z,14.30
2018-09-26T19:23:30.966Z,14.30
2018-09-26T19:25:59.056Z,14.30
2018-09-26T19:28:27.109Z,14.30
2018-09-26T19:30:55.200Z,14.40
2018-09-26T19:33:23.258Z,14.40
2018-09-26T19:35:51.302Z,14.30
2018-09-26T19:38:19.379Z,14.40
2018-09-26T19:40:47.437Z,14.50
2018-09-26T19:43:15.528Z,14.60
2018-09-26T19:45:43.744Z,14.70
2018-09-26T19:48:11.839Z,14.80
2018-09-26T19:50:39.984Z,14.90
2018-09-26T19:53:08.075Z,14.90
2018-09-26T19:55:36.189Z,14.90
2018-09-26T19:58:04.250Z,14.80
2018-09-26T20:00:32.298Z,14.60
2018-09-26T20:03:00.369Z,14.50
2018-09-26T20:05:28.587Z,14.40
2018-09-26T20:07:56.667Z,14.40
2018-09-26T20:10:24.853Z,14.30
2018-09-26T20:12:52.865Z,14.30
2018-09-26T20:15:20.912Z,14.20
2018-09-26T20:17:48.974Z,14.10
2018-09-26T20:20:17.041Z,14.00
2018-09-26T20:22:45.101Z,14.00
2018-09-26T20:25:13.182Z,14.00
2018-09-26T20:27:41.311Z,14.00
2018-09-26T20:30:09.462Z,14.00
2018-09-26T20:32:37.522Z,13.90
2018-09-26T20:35:05.679Z,13.90
2018-09-26T20:37:33.745Z,13.80
2018-09-26T20:40:01.816Z,13.80
2018-09-26T20:42:29.906Z,13.70
2018-09-26T20:44:58.090Z,13.60
2018-09-26T20:47:26.148Z,13.50
2018-09-26T20:49:55.241Z,13.60
2018-09-26T20:52:23.363Z,13.50
2018-09-26T20:54:51.470Z,13.50
2018-09-26T20:57:19.568Z,13.50
2018-09-26T20:59:47.723Z,13.50
2018-09-26T21:02:15.784Z,13.50
2018-09-26T21:04:43.824Z,13.50
2018-09-26T21:07:11.926Z,13.50
2018-09-26T21:09:40.006Z,13.50
2018-09-26T21:12:08.118Z,13.50
2018-09-26T21:14:36.189Z,13.40
2018-09-26T21:17:04.273Z,13.40
2018-09-26T21:19:32.325Z,13.30
2018-09-26T21:22:00.391Z,13.30
2018-09-26T21:24:28.450Z,13.40
2018-09-26T21:26:56.581Z,13.50
2018-09-26T21:29:24.663Z,13.60
2018-09-26T21:31:52.715Z,13.60
2018-09-26T21:34:20.783Z,13.70
2018-09-26T21:36:48.899Z,13.80
2018-09-26T21:39:16.977Z,13.90
2018-09-26T21:41:45.169Z,14.00
2018-09-26T21:44:13.176Z,14.10
2018-09-26T21:46:41.230Z,14.20
2018-09-26T21:49:09.436Z,14.30
2018-09-26T21:51:37.473Z,14.30
2018-09-26T21:54:05.571Z,14.40
2018-09-26T21:56:33.623Z,14.30
2018-09-26T21:59:01.698Z,14.30
2018-09-26T22:01:31.585Z,14.30
2018-09-26T22:04:00.075Z,14.30
2018-09-26T22:06:28.134Z,14.20
2018-09-26T22:08:56.387Z,14.20
2018-09-26T22:11:25.284Z,14.40
2018-09-26T22:13:53.354Z,14.50
2018-09-26T22:16:21.407Z,14.60
2018-09-26T22:18:49.499Z,14.50
2018-09-26T22:21:17.582Z,14.40
2018-09-26T22:23:45.655Z,14.40
2018-09-26T22:26:13.719Z,14.40
2018-09-26T22:28:41.822Z,14.50
2018-09-26T22:31:09.928Z,14.50
2018-09-26T22:33:37.986Z,14.50
2018-09-26T22:36:06.069Z,14.50
2018-09-26T22:38:34.189Z,14.40
2018-09-26T22:41:02.255Z,14.50
2018-09-26T22:43:30.335Z,14.50
2018-09-26T22:45:58.402Z,14.50
2018-09-26T22:48:26.527Z,14.40
2018-09-26T22:50:54.626Z,14.50
2018-09-26T22:53:22.695Z,14.40
2018-09-26T22:55:50.754Z,14.50
2018-09-26T22:58:18.823Z,14.40
2018-09-26T23:00:46.862Z,14.40
2018-09-26T23:03:14.914Z,14.50
2018-09-26T23:05:42.970Z,14.50
2018-09-26T23:08:11.038Z,14.60
2018-09-26T23:10:39.106Z,14.70
2018-09-26T23:13:07.205Z,14.70
2018-09-26T23:15:35.262Z,14.70
2018-09-26T23:18:03.362Z,14.60
2018-09-26T23:20:31.497Z,14.60
2018-09-26T23:22:59.570Z,14.60
2018-09-26T23:25:27.614Z,14.60
2018-09-26T23:27:55.686Z,14.60
2018-09-26T23:30:23.754Z,14.70
2018-09-26T23:32:51.814Z,14.70
2018-09-26T23:35:19.874Z,14.70
2018-09-26T23:37:47.960Z,14.70
2018-09-26T23:40:16.050Z,14.70
2018-09-26T23:42:44.150Z,14.80
2018-09-26T23:45:12.194Z,14.80
2018-09-26T23:47:40.276Z,14.90
2018-09-26T23:50:08.365Z,15.00
2018-09-26T23:52:36.431Z,15.10
2018-09-26T23:55:04.497Z,15.10
2018-09-26T23:57:32.578Z,15.10
